CheckWX is a tool to help pilots better visualize weather data.  It is not intended as a substitute for an official pre-flight weather briefing.

05:22:31 UTC

CYYR METAR
Goose Bay Airport
Goose Bay, Canada
Current

23 mins ago

CYYR 200500Z 27014G21KT 15SM DRSN FEW180 FEW230 M25/M34 A2983 RMK AC1CI1 SLP109
Observed
Feb-20 @ 05:00 UTC
Wind
  • 270° at 14 KTS
  • Gusting to 21 KTS
Visibility
24,140 meters
Flight Rules
VFR
Conditions
Low drifting Snow
Cloud Levels
  • Few at 18,000' AGL
  • Few at 23,000' AGL
Temperature
-25°C / -13°F
Dewpoint
-34°C / -29°F
Humidity
43%
Altimeter
29.83" Hg
Pressure
1010.9 hPa
Previous

1 hour ago

CYYR 200400Z 28017KT 15SM FEW036 FEW230 M24/M33 A2982 RMK SC1CI2 SLP105
Observed
Feb-20 @ 04:00 UTC
Wind
  • 280° at 17 KTS
Visibility
24,140 meters
Flight Rules
VFR
Cloud Levels
  • Few at 3,600' AGL
  • Few at 23,000' AGL
Temperature
-24°C / -11°F
Dewpoint
-33°C / -27°F
Humidity
43%
Altimeter
29.82" Hg
Pressure
1010.5 hPa
Previous

2 hours ago

CYYR 200300Z 29014KT 15SM FEW230 M23/M32 A2982 RMK CI2 SLP104
Observed
Feb-20 @ 03:00 UTC
Wind
  • 290° at 14 KTS
Visibility
24,140 meters
Flight Rules
VFR
Cloud Levels
  • Few at 23,000' AGL
Temperature
-23°C / -9°F
Dewpoint
-32°C / -26°F
Humidity
44%
Altimeter
29.82" Hg
Pressure
1010.4 hPa